sensor_id;sensor_type;location;lat;lon;timestamp;P1;durP1;ratioP1;P2;durP2;ratioP2
74064;SDS011;62421;51.412;5.432;2022-11-11T00:00:30;13.93;;;7.50;;
74064;SDS011;62421;51.412;5.432;2022-11-11T00:02:56;18.33;;;7.05;;
74064;SDS011;62421;51.412;5.432;2022-11-11T00:05:22;20.38;;;8.25;;
74064;SDS011;62421;51.412;5.432;2022-11-11T00:07:48;17.33;;;6.60;;
74064;SDS011;62421;51.412;5.432;2022-11-11T00:10:13;18.60;;;7.57;;
74064;SDS011;62421;51.412;5.432;2022-11-11T00:12:39;15.50;;;6.43;;
74064;SDS011;62421;51.412;5.432;2022-11-11T00:15:05;15.87;;;7.90;;
74064;SDS011;62421;51.412;5.432;2022-11-11T00:17:32;14.95;;;6.90;;
74064;SDS011;62421;51.412;5.432;2022-11-11T00:20:16;18.30;;;6.88;;
74064;SDS011;62421;51.412;5.432;2022-11-11T00:23:00;14.98;;;6.93;;
74064;SDS011;62421;51.412;5.432;2022-11-11T00:25:44;16.40;;;7.03;;
74064;SDS011;62421;51.412;5.432;2022-11-11T00:28:09;14.93;;;6.73;;
74064;SDS011;62421;51.412;5.432;2022-11-11T00:30:35;15.93;;;7.75;;
74064;SDS011;62421;51.412;5.432;2022-11-11T00:33:00;16.47;;;7.47;;
74064;SDS011;62421;51.412;5.432;2022-11-11T00:35:26;19.57;;;7.70;;
74064;SDS011;62421;51.412;5.432;2022-11-11T00:38:11;15.10;;;7.55;;
74064;SDS011;62421;51.412;5.432;2022-11-11T00:41:00;18.35;;;7.63;;
74064;SDS011;62421;51.412;5.432;2022-11-11T00:43:25;19.93;;;8.37;;
74064;SDS011;62421;51.412;5.432;2022-11-11T00:45:51;20.37;;;8.37;;
74064;SDS011;62421;51.412;5.432;2022-11-11T00:48:16;21.70;;;9.10;;
74064;SDS011;62421;51.412;5.432;2022-11-11T00:51:00;19.10;;;8.57;;
74064;SDS011;62421;51.412;5.432;2022-11-11T00:53:27;17.83;;;9.03;;
74064;SDS011;62421;51.412;5.432;2022-11-11T00:55:56;15.27;;;8.55;;
74064;SDS011;62421;51.412;5.432;2022-11-11T00:58:22;21.63;;;9.32;;
74064;SDS011;62421;51.412;5.432;2022-11-11T01:00:48;19.43;;;9.30;;
74064;SDS011;62421;51.412;5.432;2022-11-11T01:03:19;20.88;;;8.90;;
74064;SDS011;62421;51.412;5.432;2022-11-11T01:05:46;19.10;;;9.90;;
74064;SDS011;62421;51.412;5.432;2022-11-11T01:08:12;18.00;;;9.10;;
74064;SDS011;62421;51.412;5.432;2022-11-11T01:10:37;20.02;;;10.27;;
74064;SDS011;62421;51.412;5.432;2022-11-11T01:13:04;18.43;;;9.97;;
74064;SDS011;62421;51.412;5.432;2022-11-11T01:15:36;21.65;;;10.50;;
74064;SDS011;62421;51.412;5.432;2022-11-11T01:18:02;16.67;;;9.18;;
74064;SDS011;62421;51.412;5.432;2022-11-11T01:20:28;20.57;;;9.83;;
74064;SDS011;62421;51.412;5.432;2022-11-11T01:22:53;18.10;;;10.23;;
74064;SDS011;62421;51.412;5.432;2022-11-11T01:25:18;22.30;;;10.33;;
74064;SDS011;62421;51.412;5.432;2022-11-11T01:27:44;21.23;;;10.67;;
74064;SDS011;62421;51.412;5.432;2022-11-11T01:30:09;19.10;;;10.90;;
74064;SDS011;62421;51.412;5.432;2022-11-11T01:32:37;18.88;;;10.32;;
74064;SDS011;62421;51.412;5.432;2022-11-11T01:35:03;18.92;;;9.82;;
74064;SDS011;62421;51.412;5.432;2022-11-11T01:37:31;23.67;;;10.13;;
74064;SDS011;62421;51.412;5.432;2022-11-11T01:39:57;20.48;;;10.80;;
74064;SDS011;62421;51.412;5.432;2022-11-11T01:42:22;18.73;;;10.43;;
74064;SDS011;62421;51.412;5.432;2022-11-11T01:44:47;23.60;;;11.20;;
74064;SDS011;62421;51.412;5.432;2022-11-11T01:47:13;18.13;;;9.35;;
74064;SDS011;62421;51.412;5.432;2022-11-11T01:49:53;20.65;;;11.10;;
74064;SDS011;62421;51.412;5.432;2022-11-11T01:55:07;19.85;;;9.25;;
74064;SDS011;62421;51.412;5.432;2022-11-11T01:57:48;19.02;;;9.20;;
74064;SDS011;62421;51.412;5.432;2022-11-11T02:00:18;18.83;;;9.67;;
74064;SDS011;62421;51.412;5.432;2022-11-11T02:02:48;20.77;;;10.38;;
74064;SDS011;62421;51.412;5.432;2022-11-11T02:05:17;15.75;;;9.82;;
74064;SDS011;62421;51.412;5.432;2022-11-11T02:08:10;21.00;;;9.80;;
74064;SDS011;62421;51.412;5.432;2022-11-11T02:10:56;21.40;;;10.82;;
74064;SDS011;62421;51.412;5.432;2022-11-11T02:13:27;16.03;;;8.87;;
74064;SDS011;62421;51.412;5.432;2022-11-11T02:16:13;19.00;;;10.25;;
74064;SDS011;62421;51.412;5.432;2022-11-11T02:18:38;26.10;;;10.60;;
74064;SDS011;62421;51.412;5.432;2022-11-11T02:21:05;23.02;;;10.65;;
74064;SDS011;62421;51.412;5.432;2022-11-11T02:23:32;19.03;;;9.47;;
74064;SDS011;62421;51.412;5.432;2022-11-11T02:26:02;21.25;;;9.65;;
74064;SDS011;62421;51.412;5.432;2022-11-11T02:28:30;15.82;;;8.82;;
74064;SDS011;62421;51.412;5.432;2022-11-11T02:30:57;19.00;;;10.10;;
74064;SDS011;62421;51.412;5.432;2022-11-11T02:33:23;18.67;;;9.03;;
74064;SDS011;62421;51.412;5.432;2022-11-11T02:35:49;19.50;;;10.03;;
74064;SDS011;62421;51.412;5.432;2022-11-11T02:38:20;19.58;;;9.75;;
74064;SDS011;62421;51.412;5.432;2022-11-11T02:40:46;21.98;;;9.60;;
74064;SDS011;62421;51.412;5.432;2022-11-11T02:43:31;23.43;;;10.40;;
74064;SDS011;62421;51.412;5.432;2022-11-11T02:45:57;16.30;;;9.80;;
74064;SDS011;62421;51.412;5.432;2022-11-11T02:48:23;25.25;;;10.75;;
74064;SDS011;62421;51.412;5.432;2022-11-11T02:50:49;18.02;;;9.20;;
74064;SDS011;62421;51.412;5.432;2022-11-11T02:53:15;23.67;;;10.77;;
74064;SDS011;62421;51.412;5.432;2022-11-11T02:55:40;18.20;;;10.27;;
74064;SDS011;62421;51.412;5.432;2022-11-11T02:58:06;16.65;;;9.07;;
74064;SDS011;62421;51.412;5.432;2022-11-11T03:00:31;17.93;;;9.00;;
74064;SDS011;62421;51.412;5.432;2022-11-11T03:02:57;20.47;;;9.97;;
74064;SDS011;62421;51.412;5.432;2022-11-11T03:05:22;24.30;;;9.87;;
74064;SDS011;62421;51.412;5.432;2022-11-11T03:07:47;21.30;;;10.07;;
74064;SDS011;62421;51.412;5.432;2022-11-11T03:10:13;18.63;;;8.77;;
74064;SDS011;62421;51.412;5.432;2022-11-11T03:12:38;19.20;;;9.20;;
74064;SDS011;62421;51.412;5.432;2022-11-11T03:15:04;17.80;;;10.07;;
74064;SDS011;62421;51.412;5.432;2022-11-11T03:17:29;21.93;;;10.60;;
74064;SDS011;62421;51.412;5.432;2022-11-11T03:20:11;17.67;;;9.98;;
74064;SDS011;62421;51.412;5.432;2022-11-11T03:22:59;25.95;;;10.65;;
74064;SDS011;62421;51.412;5.432;2022-11-11T03:25:26;20.70;;;9.45;;
74064;SDS011;62421;51.412;5.432;2022-11-11T03:28:10;19.20;;;9.53;;
74064;SDS011;62421;51.412;5.432;2022-11-11T03:30:36;23.23;;;10.23;;
74064;SDS011;62421;51.412;5.432;2022-11-11T03:33:03;22.40;;;10.77;;
74064;SDS011;62421;51.412;5.432;2022-11-11T03:35:28;19.80;;;9.03;;
74064;SDS011;62421;51.412;5.432;2022-11-11T03:37:54;19.35;;;10.13;;
74064;SDS011;62421;51.412;5.432;2022-11-11T03:40:38;24.73;;;10.38;;
74064;SDS011;62421;51.412;5.432;2022-11-11T03:43:03;19.50;;;10.03;;
74064;SDS011;62421;51.412;5.432;2022-11-11T03:45:29;21.40;;;9.75;;
74064;SDS011;62421;51.412;5.432;2022-11-11T03:47:54;19.60;;;9.57;;
74064;SDS011;62421;51.412;5.432;2022-11-11T03:50:20;20.57;;;9.63;;
74064;SDS011;62421;51.412;5.432;2022-11-11T03:52:46;18.55;;;9.65;;
74064;SDS011;62421;51.412;5.432;2022-11-11T03:55:11;17.40;;;9.27;;
74064;SDS011;62421;51.412;5.432;2022-11-11T03:57:40;24.27;;;10.40;;
74064;SDS011;62421;51.412;5.432;2022-11-11T04:00:06;19.38;;;10.13;;
74064;SDS011;62421;51.412;5.432;2022-11-11T04:02:33;17.40;;;9.57;;
74064;SDS011;62421;51.412;5.432;2022-11-11T04:05:17;20.10;;;8.60;;
74064;SDS011;62421;51.412;5.432;2022-11-11T04:08:01;17.20;;;8.63;;
74064;SDS011;62421;51.412;5.432;2022-11-11T04:10:45;18.88;;;8.80;;
74064;SDS011;62421;51.412;5.432;2022-11-11T04:13:10;18.40;;;9.40;;
74064;SDS011;62421;51.412;5.432;2022-11-11T04:15:54;16.80;;;8.47;;
74064;SDS011;62421;51.412;5.432;2022-11-11T04:18:33;18.10;;;9.95;;
74064;SDS011;62421;51.412;5.432;2022-11-11T04:21:18;22.08;;;10.02;;
74064;SDS011;62421;51.412;5.432;2022-11-11T04:24:02;19.13;;;8.98;;
74064;SDS011;62421;51.412;5.432;2022-11-11T04:26:48;18.50;;;9.50;;
74064;SDS011;62421;51.412;5.432;2022-11-11T04:29:13;19.43;;;9.50;;
74064;SDS011;62421;51.412;5.432;2022-11-11T04:31:54;18.57;;;9.30;;
74064;SDS011;62421;51.412;5.432;2022-11-11T04:34:48;18.42;;;9.52;;
74064;SDS011;62421;51.412;5.432;2022-11-11T04:37:18;18.40;;;10.32;;
74064;SDS011;62421;51.412;5.432;2022-11-11T04:39:44;20.67;;;9.65;;
74064;SDS011;62421;51.412;5.432;2022-11-11T04:42:47;22.70;;;10.85;;
74064;SDS011;62421;51.412;5.432;2022-11-11T04:45:13;23.67;;;10.30;;
74064;SDS011;62421;51.412;5.432;2022-11-11T04:50:20;24.95;;;11.27;;
74064;SDS011;62421;51.412;5.432;2022-11-11T04:52:46;24.77;;;10.75;;
74064;SDS011;62421;51.412;5.432;2022-11-11T04:55:12;22.13;;;11.13;;
74064;SDS011;62421;51.412;5.432;2022-11-11T04:57:56;23.58;;;11.75;;
74064;SDS011;62421;51.412;5.432;2022-11-11T05:00:21;24.57;;;12.77;;
74064;SDS011;62421;51.412;5.432;2022-11-11T05:02:47;25.40;;;12.40;;
74064;SDS011;62421;51.412;5.432;2022-11-11T05:05:30;28.98;;;13.13;;
74064;SDS011;62421;51.412;5.432;2022-11-11T05:08:19;32.05;;;13.98;;
74064;SDS011;62421;51.412;5.432;2022-11-11T05:11:03;27.00;;;14.30;;
74064;SDS011;62421;51.412;5.432;2022-11-11T05:13:29;29.77;;;14.13;;
74064;SDS011;62421;51.412;5.432;2022-11-11T05:16:15;31.48;;;15.32;;
74064;SDS011;62421;51.412;5.432;2022-11-11T05:19:02;32.75;;;14.43;;
74064;SDS011;62421;51.412;5.432;2022-11-11T05:21:45;28.20;;;13.57;;
74064;SDS011;62421;51.412;5.432;2022-11-11T05:24:11;33.13;;;14.52;;
74064;SDS011;62421;51.412;5.432;2022-11-11T05:26:55;29.17;;;14.50;;
74064;SDS011;62421;51.412;5.432;2022-11-11T05:29:20;29.70;;;14.43;;
74064;SDS011;62421;51.412;5.432;2022-11-11T05:31:45;32.37;;;14.67;;
74064;SDS011;62421;51.412;5.432;2022-11-11T05:34:11;31.97;;;14.80;;
74064;SDS011;62421;51.412;5.432;2022-11-11T05:36:36;29.43;;;13.37;;
74064;SDS011;62421;51.412;5.432;2022-11-11T05:39:01;37.08;;;14.65;;
74064;SDS011;62421;51.412;5.432;2022-11-11T05:41:26;29.48;;;13.95;;
74064;SDS011;62421;51.412;5.432;2022-11-11T05:43:52;28.90;;;13.93;;
74064;SDS011;62421;51.412;5.432;2022-11-11T05:46:17;30.63;;;13.10;;
74064;SDS011;62421;51.412;5.432;2022-11-11T05:48:42;36.20;;;15.43;;
74064;SDS011;62421;51.412;5.432;2022-11-11T05:51:26;31.30;;;15.20;;
74064;SDS011;62421;51.412;5.432;2022-11-11T05:53:52;37.03;;;16.35;;
74064;SDS011;62421;51.412;5.432;2022-11-11T05:56:18;31.30;;;14.53;;
74064;SDS011;62421;51.412;5.432;2022-11-11T05:58:43;37.63;;;17.00;;
74064;SDS011;62421;51.412;5.432;2022-11-11T06:01:08;33.63;;;16.00;;
74064;SDS011;62421;51.412;5.432;2022-11-11T06:03:33;35.03;;;14.70;;
74064;SDS011;62421;51.412;5.432;2022-11-11T06:05:59;39.20;;;16.43;;
74064;SDS011;62421;51.412;5.432;2022-11-11T06:08:24;40.07;;;16.47;;
74064;SDS011;62421;51.412;5.432;2022-11-11T06:10:49;39.50;;;16.50;;
74064;SDS011;62421;51.412;5.432;2022-11-11T06:13:17;37.67;;;15.73;;
74064;SDS011;62421;51.412;5.432;2022-11-11T06:15:42;31.73;;;15.30;;
74064;SDS011;62421;51.412;5.432;2022-11-11T06:18:07;30.77;;;14.63;;
74064;SDS011;62421;51.412;5.432;2022-11-11T06:20:33;33.50;;;15.07;;
74064;SDS011;62421;51.412;5.432;2022-11-11T06:22:59;32.60;;;16.58;;
74064;SDS011;62421;51.412;5.432;2022-11-11T06:25:26;33.92;;;15.63;;
74064;SDS011;62421;51.412;5.432;2022-11-11T06:28:12;31.33;;;14.97;;
74064;SDS011;62421;51.412;5.432;2022-11-11T06:30:38;37.20;;;13.95;;
74064;SDS011;62421;51.412;5.432;2022-11-11T06:33:04;34.75;;;14.40;;
74064;SDS011;62421;51.412;5.432;2022-11-11T06:35:34;34.10;;;15.27;;
74064;SDS011;62421;51.412;5.432;2022-11-11T06:38:00;31.75;;;14.73;;
74064;SDS011;62421;51.412;5.432;2022-11-11T06:40:26;33.87;;;15.67;;
74064;SDS011;62421;51.412;5.432;2022-11-11T06:42:52;32.30;;;14.75;;
74064;SDS011;62421;51.412;5.432;2022-11-11T06:45:18;34.23;;;14.77;;
74064;SDS011;62421;51.412;5.432;2022-11-11T06:47:43;29.60;;;14.93;;
74064;SDS011;62421;51.412;5.432;2022-11-11T06:50:09;33.53;;;14.90;;
74064;SDS011;62421;51.412;5.432;2022-11-11T06:52:34;33.93;;;15.37;;
74064;SDS011;62421;51.412;5.432;2022-11-11T06:54:59;31.40;;;14.00;;
74064;SDS011;62421;51.412;5.432;2022-11-11T06:57:25;32.40;;;14.40;;
74064;SDS011;62421;51.412;5.432;2022-11-11T06:59:50;29.67;;;14.00;;
74064;SDS011;62421;51.412;5.432;2022-11-11T07:02:15;26.10;;;12.23;;
74064;SDS011;62421;51.412;5.432;2022-11-11T07:04:41;29.17;;;13.10;;
74064;SDS011;62421;51.412;5.432;2022-11-11T07:07:06;27.20;;;13.37;;
74064;SDS011;62421;51.412;5.432;2022-11-11T07:09:31;31.83;;;14.60;;
74064;SDS011;62421;51.412;5.432;2022-11-11T07:11:57;32.10;;;12.67;;
74064;SDS011;62421;51.412;5.432;2022-11-11T07:14:23;31.95;;;12.35;;
74064;SDS011;62421;51.412;5.432;2022-11-11T07:16:48;27.87;;;12.93;;
74064;SDS011;62421;51.412;5.432;2022-11-11T07:19:14;28.97;;;13.27;;
74064;SDS011;62421;51.412;5.432;2022-11-11T07:21:39;28.87;;;12.90;;
74064;SDS011;62421;51.412;5.432;2022-11-11T07:24:04;24.37;;;11.37;;
74064;SDS011;62421;51.412;5.432;2022-11-11T07:26:30;23.92;;;11.02;;
74064;SDS011;62421;51.412;5.432;2022-11-11T07:28:55;26.33;;;10.50;;
74064;SDS011;62421;51.412;5.432;2022-11-11T07:31:21;27.77;;;11.83;;
74064;SDS011;62421;51.412;5.432;2022-11-11T07:33:46;26.43;;;10.90;;
74064;SDS011;62421;51.412;5.432;2022-11-11T07:36:11;23.17;;;9.23;;
74064;SDS011;62421;51.412;5.432;2022-11-11T07:38:36;20.07;;;9.50;;
74064;SDS011;62421;51.412;5.432;2022-11-11T07:41:02;21.80;;;9.53;;
74064;SDS011;62421;51.412;5.432;2022-11-11T07:43:27;20.17;;;10.20;;
74064;SDS011;62421;51.412;5.432;2022-11-11T07:45:53;19.83;;;9.63;;
74064;SDS011;62421;51.412;5.432;2022-11-11T07:48:18;23.80;;;9.33;;
74064;SDS011;62421;51.412;5.432;2022-11-11T07:50:43;19.07;;;9.33;;
74064;SDS011;62421;51.412;5.432;2022-11-11T07:53:09;20.20;;;9.40;;
74064;SDS011;62421;51.412;5.432;2022-11-11T07:55:34;19.97;;;10.17;;
74064;SDS011;62421;51.412;5.432;2022-11-11T07:57:59;20.43;;;9.03;;
74064;SDS011;62421;51.412;5.432;2022-11-11T08:00:26;20.02;;;8.45;;
74064;SDS011;62421;51.412;5.432;2022-11-11T08:02:51;18.47;;;9.20;;
74064;SDS011;62421;51.412;5.432;2022-11-11T08:05:17;15.73;;;8.10;;
74064;SDS011;62421;51.412;5.432;2022-11-11T08:07:42;14.97;;;7.70;;
74064;SDS011;62421;51.412;5.432;2022-11-11T08:10:08;14.40;;;7.00;;
74064;SDS011;62421;51.412;5.432;2022-11-11T08:12:35;18.70;;;7.93;;
74064;SDS011;62421;51.412;5.432;2022-11-11T08:15:19;16.83;;;7.60;;
74064;SDS011;62421;51.412;5.432;2022-11-11T08:17:44;14.60;;;7.82;;
74064;SDS011;62421;51.412;5.432;2022-11-11T08:20:09;16.00;;;7.25;;
74064;SDS011;62421;51.412;5.432;2022-11-11T08:22:36;14.80;;;6.50;;
74064;SDS011;62421;51.412;5.432;2022-11-11T08:25:06;13.68;;;6.35;;
74064;SDS011;62421;51.412;5.432;2022-11-11T08:27:33;12.05;;;6.90;;
74064;SDS011;62421;51.412;5.432;2022-11-11T08:29:59;14.27;;;6.13;;
74064;SDS011;62421;51.412;5.432;2022-11-11T08:32:25;12.55;;;5.68;;
74064;SDS011;62421;51.412;5.432;2022-11-11T08:34:50;11.68;;;5.22;;
74064;SDS011;62421;51.412;5.432;2022-11-11T08:37:16;15.10;;;6.03;;
74064;SDS011;62421;51.412;5.432;2022-11-11T08:39:41;12.30;;;6.17;;
74064;SDS011;62421;51.412;5.432;2022-11-11T08:42:06;10.53;;;5.77;;
74064;SDS011;62421;51.412;5.432;2022-11-11T08:44:32;11.10;;;5.33;;
74064;SDS011;62421;51.412;5.432;2022-11-11T08:46:57;14.90;;;6.40;;
74064;SDS011;62421;51.412;5.432;2022-11-11T08:49:22;13.20;;;5.43;;
74064;SDS011;62421;51.412;5.432;2022-11-11T08:51:48;14.23;;;5.30;;
74064;SDS011;62421;51.412;5.432;2022-11-11T08:54:13;11.60;;;5.78;;
74064;SDS011;62421;51.412;5.432;2022-11-11T08:56:38;12.63;;;5.70;;
74064;SDS011;62421;51.412;5.432;2022-11-11T08:59:04;15.43;;;5.20;;
74064;SDS011;62421;51.412;5.432;2022-11-11T09:01:30;11.97;;;6.47;;
74064;SDS011;62421;51.412;5.432;2022-11-11T09:03:55;11.90;;;5.43;;
74064;SDS011;62421;51.412;5.432;2022-11-11T09:06:20;21.00;;;5.60;;
74064;SDS011;62421;51.412;5.432;2022-11-11T09:08:46;15.43;;;5.80;;
74064;SDS011;62421;51.412;5.432;2022-11-11T09:11:11;13.50;;;5.60;;
74064;SDS011;62421;51.412;5.432;2022-11-11T09:13:36;11.83;;;5.77;;
74064;SDS011;62421;51.412;5.432;2022-11-11T09:16:02;13.10;;;6.10;;
74064;SDS011;62421;51.412;5.432;2022-11-11T09:18:27;15.40;;;6.73;;
74064;SDS011;62421;51.412;5.432;2022-11-11T09:20:56;15.73;;;6.72;;
74064;SDS011;62421;51.412;5.432;2022-11-11T09:23:23;14.65;;;6.47;;
74064;SDS011;62421;51.412;5.432;2022-11-11T09:25:49;18.00;;;7.13;;
74064;SDS011;62421;51.412;5.432;2022-11-11T09:28:14;13.07;;;6.50;;
74064;SDS011;62421;51.412;5.432;2022-11-11T09:30:39;20.40;;;7.70;;
74064;SDS011;62421;51.412;5.432;2022-11-11T09:33:05;19.20;;;7.53;;
74064;SDS011;62421;51.412;5.432;2022-11-11T09:35:30;15.75;;;7.25;;
74064;SDS011;62421;51.412;5.432;2022-11-11T09:37:57;15.50;;;7.60;;
74064;SDS011;62421;51.412;5.432;2022-11-11T09:40:24;20.45;;;8.82;;
74064;SDS011;62421;51.412;5.432;2022-11-11T09:43:04;13.60;;;7.77;;
74064;SDS011;62421;51.412;5.432;2022-11-11T09:45:43;22.15;;;7.82;;
74064;SDS011;62421;51.412;5.432;2022-11-11T09:51:24;17.17;;;7.05;;
74064;SDS011;62421;51.412;5.432;2022-11-11T09:54:05;18.25;;;7.65;;
74064;SDS011;62421;51.412;5.432;2022-11-11T09:56:36;17.30;;;6.63;;
74064;SDS011;62421;51.412;5.432;2022-11-11T09:59:06;13.05;;;6.78;;
74064;SDS011;62421;51.412;5.432;2022-11-11T10:01:52;13.23;;;6.07;;
74064;SDS011;62421;51.412;5.432;2022-11-11T10:06:52;18.45;;;6.78;;
74064;SDS011;62421;51.412;5.432;2022-11-11T10:14:36;18.08;;;6.35;;
74064;SDS011;62421;51.412;5.432;2022-11-11T10:20:04;12.32;;;6.32;;
74064;SDS011;62421;51.412;5.432;2022-11-11T10:22:39;13.07;;;5.40;;
74064;SDS011;62421;51.412;5.432;2022-11-11T10:27:40;10.20;;;4.78;;
74064;SDS011;62421;51.412;5.432;2022-11-11T10:30:29;13.20;;;4.90;;
74064;SDS011;62421;51.412;5.432;2022-11-11T10:33:16;20.52;;;5.60;;
74064;SDS011;62421;51.412;5.432;2022-11-11T10:35:45;16.67;;;5.13;;
74064;SDS011;62421;51.412;5.432;2022-11-11T10:43:23;10.17;;;4.70;;
74064;SDS011;62421;51.412;5.432;2022-11-11T10:46:03;12.38;;;4.60;;
74064;SDS011;62421;51.412;5.432;2022-11-11T10:48:54;7.50;;;3.38;;
74064;SDS011;62421;51.412;5.432;2022-11-11T10:51:21;7.47;;;3.80;;
74064;SDS011;62421;51.412;5.432;2022-11-11T10:54:03;8.55;;;2.90;;
74064;SDS011;62421;51.412;5.432;2022-11-11T10:56:40;9.35;;;3.53;;
74064;SDS011;62421;51.412;5.432;2022-11-11T10:59:15;9.18;;;3.83;;
74064;SDS011;62421;51.412;5.432;2022-11-11T11:04:36;6.70;;;3.33;;
74064;SDS011;62421;51.412;5.432;2022-11-11T11:07:08;8.30;;;3.80;;
74064;SDS011;62421;51.412;5.432;2022-11-11T11:09:42;6.43;;;2.78;;
74064;SDS011;62421;51.412;5.432;2022-11-11T11:12:19;7.35;;;3.75;;
74064;SDS011;62421;51.412;5.432;2022-11-11T11:14:53;7.15;;;3.58;;
74064;SDS011;62421;51.412;5.432;2022-11-11T11:17:26;9.50;;;3.47;;
74064;SDS011;62421;51.412;5.432;2022-11-11T11:20:07;9.00;;;3.38;;
74064;SDS011;62421;51.412;5.432;2022-11-11T11:22:44;6.22;;;2.50;;
74064;SDS011;62421;51.412;5.432;2022-11-11T11:25:12;7.53;;;2.92;;
74064;SDS011;62421;51.412;5.432;2022-11-11T11:27:38;6.57;;;3.08;;
74064;SDS011;62421;51.412;5.432;2022-11-11T11:30:11;7.70;;;2.73;;
74064;SDS011;62421;51.412;5.432;2022-11-11T11:32:40;10.02;;;2.72;;
74064;SDS011;62421;51.412;5.432;2022-11-11T11:35:09;6.33;;;2.70;;
74064;SDS011;62421;51.412;5.432;2022-11-11T11:37:50;9.45;;;2.20;;
74064;SDS011;62421;51.412;5.432;2022-11-11T11:40:15;6.95;;;2.72;;
74064;SDS011;62421;51.412;5.432;2022-11-11T11:42:41;8.37;;;3.07;;
74064;SDS011;62421;51.412;5.432;2022-11-11T11:48:15;8.45;;;2.72;;
74064;SDS011;62421;51.412;5.432;2022-11-11T11:50:45;8.00;;;2.73;;
74064;SDS011;62421;51.412;5.432;2022-11-11T12:09:50;6.20;;;2.60;;
74064;SDS011;62421;51.412;5.432;2022-11-11T12:15:25;6.05;;;2.15;;
74064;SDS011;62421;51.412;5.432;2022-11-11T12:20:49;4.85;;;2.13;;
74064;SDS011;62421;51.412;5.432;2022-11-11T12:23:32;5.30;;;1.90;;
74064;SDS011;62421;51.412;5.432;2022-11-11T12:26:06;6.20;;;2.17;;
74064;SDS011;62421;51.412;5.432;2022-11-11T12:28:47;7.28;;;2.42;;
74064;SDS011;62421;51.412;5.432;2022-11-11T12:34:01;5.32;;;2.17;;
74064;SDS011;62421;51.412;5.432;2022-11-11T12:36:35;4.97;;;2.58;;
74064;SDS011;62421;51.412;5.432;2022-11-11T12:47:36;7.45;;;2.70;;
74064;SDS011;62421;51.412;5.432;2022-11-11T12:50:37;5.50;;;2.10;;
74064;SDS011;62421;51.412;5.432;2022-11-11T12:58:43;8.37;;;2.23;;
74064;SDS011;62421;51.412;5.432;2022-11-11T13:06:36;5.47;;;2.30;;
74064;SDS011;62421;51.412;5.432;2022-11-11T13:17:20;9.23;;;2.45;;
74064;SDS011;62421;51.412;5.432;2022-11-11T13:20:00;6.75;;;2.58;;
74064;SDS011;62421;51.412;5.432;2022-11-11T13:22:31;6.97;;;2.22;;
74064;SDS011;62421;51.412;5.432;2022-11-11T13:24:57;7.67;;;2.50;;
74064;SDS011;62421;51.412;5.432;2022-11-11T13:27:39;8.18;;;2.13;;
74064;SDS011;62421;51.412;5.432;2022-11-11T13:33:19;3.85;;;1.58;;
74064;SDS011;62421;51.412;5.432;2022-11-11T13:35:55;4.82;;;2.35;;
74064;SDS011;62421;51.412;5.432;2022-11-11T13:40:54;8.00;;;2.30;;
74064;SDS011;62421;51.412;5.432;2022-11-11T13:43:24;5.80;;;2.30;;
74064;SDS011;62421;51.412;5.432;2022-11-11T13:45:58;5.38;;;1.92;;
74064;SDS011;62421;51.412;5.432;2022-11-11T13:48:27;4.45;;;2.00;;
74064;SDS011;62421;51.412;5.432;2022-11-11T13:54:00;5.20;;;1.90;;
74064;SDS011;62421;51.412;5.432;2022-11-11T13:56:39;5.57;;;3.05;;
74064;SDS011;62421;51.412;5.432;2022-11-11T13:59:13;4.13;;;2.10;;
74064;SDS011;62421;51.412;5.432;2022-11-11T14:01:47;4.18;;;1.80;;
74064;SDS011;62421;51.412;5.432;2022-11-11T14:10:08;7.55;;;2.45;;
74064;SDS011;62421;51.412;5.432;2022-11-11T14:12:41;5.80;;;2.15;;
74064;SDS011;62421;51.412;5.432;2022-11-11T14:18:04;5.33;;;1.80;;
74064;SDS011;62421;51.412;5.432;2022-11-11T14:20:52;5.47;;;2.35;;
74064;SDS011;62421;51.412;5.432;2022-11-11T14:23:22;8.90;;;2.28;;
74064;SDS011;62421;51.412;5.432;2022-11-11T14:41:51;8.43;;;2.05;;
74064;SDS011;62421;51.412;5.432;2022-11-11T15:00:51;6.18;;;2.00;;
74064;SDS011;62421;51.412;5.432;2022-11-11T15:06:00;7.03;;;2.10;;
74064;SDS011;62421;51.412;5.432;2022-11-11T15:11:32;13.47;;;2.30;;
74064;SDS011;62421;51.412;5.432;2022-11-11T15:20:01;6.72;;;1.80;;
74064;SDS011;62421;51.412;5.432;2022-11-11T15:30:59;6.88;;;1.70;;
74064;SDS011;62421;51.412;5.432;2022-11-11T15:33:52;5.72;;;1.88;;
74064;SDS011;62421;51.412;5.432;2022-11-11T15:36:26;4.22;;;2.20;;
74064;SDS011;62421;51.412;5.432;2022-11-11T15:39:04;6.63;;;2.00;;
74064;SDS011;62421;51.412;5.432;2022-11-11T15:41:35;5.38;;;2.15;;
74064;SDS011;62421;51.412;5.432;2022-11-11T15:44:16;6.78;;;2.25;;
74064;SDS011;62421;51.412;5.432;2022-11-11T15:46:48;5.20;;;1.98;;
74064;SDS011;62421;51.412;5.432;2022-11-11T15:49:14;3.63;;;1.92;;
74064;SDS011;62421;51.412;5.432;2022-11-11T15:54:47;7.55;;;2.00;;
74064;SDS011;62421;51.412;5.432;2022-11-11T15:59:55;9.68;;;2.38;;
74064;SDS011;62421;51.412;5.432;2022-11-11T16:02:25;6.57;;;2.55;;
74064;SDS011;62421;51.412;5.432;2022-11-11T16:05:00;5.73;;;2.13;;
74064;SDS011;62421;51.412;5.432;2022-11-11T16:07:43;4.78;;;2.10;;
74064;SDS011;62421;51.412;5.432;2022-11-11T16:10:18;5.47;;;2.33;;
74064;SDS011;62421;51.412;5.432;2022-11-11T16:12:58;5.05;;;2.05;;
74064;SDS011;62421;51.412;5.432;2022-11-11T16:15:46;5.28;;;2.58;;
74064;SDS011;62421;51.412;5.432;2022-11-11T16:18:19;6.80;;;2.40;;
74064;SDS011;62421;51.412;5.432;2022-11-11T16:21:09;7.18;;;2.40;;
74064;SDS011;62421;51.412;5.432;2022-11-11T16:23:43;3.90;;;2.22;;
74064;SDS011;62421;51.412;5.432;2022-11-11T16:26:09;6.30;;;2.42;;
74064;SDS011;62421;51.412;5.432;2022-11-11T16:28:40;6.07;;;2.45;;
74064;SDS011;62421;51.412;5.432;2022-11-11T16:39:26;7.00;;;2.38;;
74064;SDS011;62421;51.412;5.432;2022-11-11T16:41:53;8.23;;;2.97;;
74064;SDS011;62421;51.412;5.432;2022-11-11T16:44:40;8.90;;;2.87;;
74064;SDS011;62421;51.412;5.432;2022-11-11T16:52:59;8.68;;;2.47;;
74064;SDS011;62421;51.412;5.432;2022-11-11T16:55:35;7.80;;;2.50;;
74064;SDS011;62421;51.412;5.432;2022-11-11T16:58:36;8.00;;;2.53;;
74064;SDS011;62421;51.412;5.432;2022-11-11T17:00:57;7.50;;;2.80;;
74064;SDS011;62421;51.412;5.432;2022-11-11T17:03:25;6.28;;;2.83;;
74064;SDS011;62421;51.412;5.432;2022-11-11T17:11:02;7.23;;;2.70;;
74064;SDS011;62421;51.412;5.432;2022-11-11T17:13:29;8.20;;;2.80;;
74064;SDS011;62421;51.412;5.432;2022-11-11T17:15:57;8.43;;;3.03;;
74064;SDS011;62421;51.412;5.432;2022-11-11T17:18:28;9.05;;;2.35;;
74064;SDS011;62421;51.412;5.432;2022-11-11T17:20:57;7.20;;;2.50;;
74064;SDS011;62421;51.412;5.432;2022-11-11T17:23:23;8.73;;;3.13;;
74064;SDS011;62421;51.412;5.432;2022-11-11T17:25:56;8.02;;;2.53;;
74064;SDS011;62421;51.412;5.432;2022-11-11T17:28:24;9.13;;;2.78;;
74064;SDS011;62421;51.412;5.432;2022-11-11T17:30:49;10.57;;;3.47;;
74064;SDS011;62421;51.412;5.432;2022-11-11T17:33:15;9.03;;;2.63;;
74064;SDS011;62421;51.412;5.432;2022-11-11T17:35:48;7.60;;;2.87;;
74064;SDS011;62421;51.412;5.432;2022-11-11T17:38:15;6.50;;;2.90;;
74064;SDS011;62421;51.412;5.432;2022-11-11T17:40:46;5.20;;;3.00;;
74064;SDS011;62421;51.412;5.432;2022-11-11T17:43:12;7.05;;;2.75;;
74064;SDS011;62421;51.412;5.432;2022-11-11T17:45:39;5.05;;;2.08;;
74064;SDS011;62421;51.412;5.432;2022-11-11T17:48:04;6.23;;;2.67;;
74064;SDS011;62421;51.412;5.432;2022-11-11T17:50:30;6.47;;;3.10;;
74064;SDS011;62421;51.412;5.432;2022-11-11T17:52:55;5.63;;;2.47;;